sensor_id;sensor_type;location;lat;lon;timestamp;P1;durP1;ratioP1;P2;durP2;ratioP2
61344;SDS011;47216;42.656;23.232;2023-07-31T00:00:29;4.67;;;3.17;;
61344;SDS011;47216;42.656;23.232;2023-07-31T00:02:55;3.80;;;3.40;;
61344;SDS011;47216;42.656;23.232;2023-07-31T00:05:22;6.90;;;3.50;;
61344;SDS011;47216;42.656;23.232;2023-07-31T00:07:49;5.07;;;3.30;;
61344;SDS011;47216;42.656;23.232;2023-07-31T00:10:16;3.70;;;3.10;;
61344;SDS011;47216;42.656;23.232;2023-07-31T00:12:44;7.23;;;3.90;;
61344;SDS011;47216;42.656;23.232;2023-07-31T00:15:11;3.50;;;3.13;;
61344;SDS011;47216;42.656;23.232;2023-07-31T00:17:39;5.00;;;3.40;;
61344;SDS011;47216;42.656;23.232;2023-07-31T00:20:07;4.17;;;3.30;;
61344;SDS011;47216;42.656;23.232;2023-07-31T00:22:35;5.97;;;3.77;;
61344;SDS011;47216;42.656;23.232;2023-07-31T00:25:02;7.80;;;3.60;;
61344;SDS011;47216;42.656;23.232;2023-07-31T00:27:31;3.57;;;3.10;;
61344;SDS011;47216;42.656;23.232;2023-07-31T00:29:59;3.93;;;3.27;;
61344;SDS011;47216;42.656;23.232;2023-07-31T00:32:26;5.90;;;3.43;;
61344;SDS011;47216;42.656;23.232;2023-07-31T00:34:53;3.43;;;3.13;;
61344;SDS011;47216;42.656;23.232;2023-07-31T00:37:19;3.73;;;3.43;;
61344;SDS011;47216;42.656;23.232;2023-07-31T00:39:46;5.07;;;3.50;;
61344;SDS011;47216;42.656;23.232;2023-07-31T00:42:13;3.73;;;3.30;;
61344;SDS011;47216;42.656;23.232;2023-07-31T00:44:39;5.67;;;3.30;;
61344;SDS011;47216;42.656;23.232;2023-07-31T00:47:07;6.05;;;3.65;;
61344;SDS011;47216;42.656;23.232;2023-07-31T00:49:34;5.60;;;4.13;;
61344;SDS011;47216;42.656;23.232;2023-07-31T00:52:01;4.03;;;3.60;;
61344;SDS011;47216;42.656;23.232;2023-07-31T00:54:28;4.72;;;4.22;;
61344;SDS011;47216;42.656;23.232;2023-07-31T00:56:55;5.37;;;4.80;;
61344;SDS011;47216;42.656;23.232;2023-07-31T00:59:23;5.60;;;5.00;;
61344;SDS011;47216;42.656;23.232;2023-07-31T01:01:49;6.47;;;5.03;;
61344;SDS011;47216;42.656;23.232;2023-07-31T01:04:18;5.80;;;5.23;;
61344;SDS011;47216;42.656;23.232;2023-07-31T01:06:47;5.97;;;5.23;;
61344;SDS011;47216;42.656;23.232;2023-07-31T01:09:22;7.00;;;6.30;;
61344;SDS011;47216;42.656;23.232;2023-07-31T01:11:57;7.33;;;6.30;;
61344;SDS011;47216;42.656;23.232;2023-07-31T01:14:28;7.03;;;6.33;;
61344;SDS011;47216;42.656;23.232;2023-07-31T01:16:55;8.73;;;7.83;;
61344;SDS011;47216;42.656;23.232;2023-07-31T01:19:23;9.87;;;8.70;;
61344;SDS011;47216;42.656;23.232;2023-07-31T01:21:58;8.87;;;7.97;;
61344;SDS011;47216;42.656;23.232;2023-07-31T01:24:42;12.10;;;9.97;;
61344;SDS011;47216;42.656;23.232;2023-07-31T01:27:23;11.50;;;9.87;;
61344;SDS011;47216;42.656;23.232;2023-07-31T01:29:54;14.47;;;12.20;;
61344;SDS011;47216;42.656;23.232;2023-07-31T01:32:25;15.67;;;12.37;;
61344;SDS011;47216;42.656;23.232;2023-07-31T01:34:54;18.40;;;12.67;;
61344;SDS011;47216;42.656;23.232;2023-07-31T01:37:27;16.80;;;13.70;;
61344;SDS011;47216;42.656;23.232;2023-07-31T01:39:54;17.13;;;14.27;;
61344;SDS011;47216;42.656;23.232;2023-07-31T01:42:22;22.17;;;15.10;;
61344;SDS011;47216;42.656;23.232;2023-07-31T01:44:49;17.33;;;14.83;;
61344;SDS011;47216;42.656;23.232;2023-07-31T01:47:16;19.50;;;15.07;;
61344;SDS011;47216;42.656;23.232;2023-07-31T01:49:42;18.53;;;15.27;;
61344;SDS011;47216;42.656;23.232;2023-07-31T01:52:09;19.33;;;15.70;;
61344;SDS011;47216;42.656;23.232;2023-07-31T01:54:36;20.50;;;16.53;;
61344;SDS011;47216;42.656;23.232;2023-07-31T01:57:03;17.47;;;14.70;;
61344;SDS011;47216;42.656;23.232;2023-07-31T01:59:31;19.03;;;14.90;;
61344;SDS011;47216;42.656;23.232;2023-07-31T02:01:58;19.27;;;15.73;;
61344;SDS011;47216;42.656;23.232;2023-07-31T02:04:24;20.33;;;16.50;;
61344;SDS011;47216;42.656;23.232;2023-07-31T02:06:52;22.43;;;16.90;;
61344;SDS011;47216;42.656;23.232;2023-07-31T02:09:19;21.33;;;17.67;;
61344;SDS011;47216;42.656;23.232;2023-07-31T02:11:45;19.83;;;16.63;;
61344;SDS011;47216;42.656;23.232;2023-07-31T02:14:12;21.47;;;16.93;;
61344;SDS011;47216;42.656;23.232;2023-07-31T02:16:40;23.20;;;17.43;;
61344;SDS011;47216;42.656;23.232;2023-07-31T02:19:07;21.77;;;17.70;;
61344;SDS011;47216;42.656;23.232;2023-07-31T02:21:34;18.80;;;16.43;;
61344;SDS011;47216;42.656;23.232;2023-07-31T02:24:01;21.57;;;17.40;;
61344;SDS011;47216;42.656;23.232;2023-07-31T02:26:28;20.10;;;17.10;;
61344;SDS011;47216;42.656;23.232;2023-07-31T02:28:54;20.00;;;16.80;;
61344;SDS011;47216;42.656;23.232;2023-07-31T02:31:21;21.07;;;16.93;;
61344;SDS011;47216;42.656;23.232;2023-07-31T02:33:49;19.73;;;16.60;;
61344;SDS011;47216;42.656;23.232;2023-07-31T02:36:16;22.00;;;17.90;;
61344;SDS011;47216;42.656;23.232;2023-07-31T02:38:43;22.07;;;17.67;;
61344;SDS011;47216;42.656;23.232;2023-07-31T02:41:09;20.63;;;16.47;;
61344;SDS011;47216;42.656;23.232;2023-07-31T02:43:36;22.03;;;17.37;;
61344;SDS011;47216;42.656;23.232;2023-07-31T02:46:03;21.73;;;17.83;;
61344;SDS011;47216;42.656;23.232;2023-07-31T02:48:30;22.37;;;18.10;;
61344;SDS011;47216;42.656;23.232;2023-07-31T02:50:58;20.37;;;17.43;;
61344;SDS011;47216;42.656;23.232;2023-07-31T02:53:25;22.27;;;18.20;;
61344;SDS011;47216;42.656;23.232;2023-07-31T02:55:51;24.60;;;17.10;;
61344;SDS011;47216;42.656;23.232;2023-07-31T02:58:18;22.90;;;18.47;;
61344;SDS011;47216;42.656;23.232;2023-07-31T03:00:45;20.83;;;17.17;;
61344;SDS011;47216;42.656;23.232;2023-07-31T03:03:11;21.97;;;18.30;;
61344;SDS011;47216;42.656;23.232;2023-07-31T03:05:38;21.13;;;17.20;;
61344;SDS011;47216;42.656;23.232;2023-07-31T03:08:06;23.37;;;18.83;;
61344;SDS011;47216;42.656;23.232;2023-07-31T03:10:33;25.67;;;19.50;;
61344;SDS011;47216;42.656;23.232;2023-07-31T03:13:00;20.47;;;17.17;;
61344;SDS011;47216;42.656;23.232;2023-07-31T03:15:26;24.70;;;18.80;;
61344;SDS011;47216;42.656;23.232;2023-07-31T03:17:53;21.53;;;17.30;;
61344;SDS011;47216;42.656;23.232;2023-07-31T03:20:20;22.20;;;18.10;;
61344;SDS011;47216;42.656;23.232;2023-07-31T03:22:47;23.63;;;17.27;;
61344;SDS011;47216;42.656;23.232;2023-07-31T03:25:15;22.83;;;18.07;;
61344;SDS011;47216;42.656;23.232;2023-07-31T03:27:42;23.63;;;18.70;;
61344;SDS011;47216;42.656;23.232;2023-07-31T03:30:09;22.07;;;18.80;;
61344;SDS011;47216;42.656;23.232;2023-07-31T03:32:36;20.77;;;16.97;;
61344;SDS011;47216;42.656;23.232;2023-07-31T03:35:03;21.70;;;17.50;;
61344;SDS011;47216;42.656;23.232;2023-07-31T03:37:30;25.87;;;18.33;;
61344;SDS011;47216;42.656;23.232;2023-07-31T03:39:57;22.58;;;18.75;;
61344;SDS011;47216;42.656;23.232;2023-07-31T03:42:25;24.77;;;18.50;;
61344;SDS011;47216;42.656;23.232;2023-07-31T03:44:52;22.63;;;17.98;;
61344;SDS011;47216;42.656;23.232;2023-07-31T03:47:18;23.03;;;17.97;;
61344;SDS011;47216;42.656;23.232;2023-07-31T03:49:45;23.83;;;17.90;;
61344;SDS011;47216;42.656;23.232;2023-07-31T03:52:12;24.17;;;18.75;;
61344;SDS011;47216;42.656;23.232;2023-07-31T03:54:39;24.50;;;17.90;;
61344;SDS011;47216;42.656;23.232;2023-07-31T03:57:05;23.93;;;19.00;;
61344;SDS011;47216;42.656;23.232;2023-07-31T03:59:34;23.70;;;18.73;;
61344;SDS011;47216;42.656;23.232;2023-07-31T04:02:00;23.73;;;18.10;;
61344;SDS011;47216;42.656;23.232;2023-07-31T04:04:27;26.97;;;19.23;;
61344;SDS011;47216;42.656;23.232;2023-07-31T04:06:54;32.03;;;20.73;;
61344;SDS011;47216;42.656;23.232;2023-07-31T04:09:21;25.30;;;18.77;;
61344;SDS011;47216;42.656;23.232;2023-07-31T04:11:47;24.87;;;18.90;;
61344;SDS011;47216;42.656;23.232;2023-07-31T04:14:14;25.63;;;20.00;;
61344;SDS011;47216;42.656;23.232;2023-07-31T04:16:42;23.80;;;18.40;;
61344;SDS011;47216;42.656;23.232;2023-07-31T04:19:09;25.33;;;19.27;;
61344;SDS011;47216;42.656;23.232;2023-07-31T04:21:36;27.13;;;18.90;;
61344;SDS011;47216;42.656;23.232;2023-07-31T04:24:03;26.10;;;19.07;;
61344;SDS011;47216;42.656;23.232;2023-07-31T04:26:30;26.53;;;18.97;;
61344;SDS011;47216;42.656;23.232;2023-07-31T04:28:56;24.93;;;18.20;;
61344;SDS011;47216;42.656;23.232;2023-07-31T04:31:23;24.73;;;19.00;;
61344;SDS011;47216;42.656;23.232;2023-07-31T04:33:51;25.37;;;17.97;;
61344;SDS011;47216;42.656;23.232;2023-07-31T04:36:18;25.00;;;18.73;;
61344;SDS011;47216;42.656;23.232;2023-07-31T04:38:45;26.47;;;18.37;;
61344;SDS011;47216;42.656;23.232;2023-07-31T04:41:11;22.20;;;17.87;;
61344;SDS011;47216;42.656;23.232;2023-07-31T04:43:38;23.07;;;18.10;;
61344;SDS011;47216;42.656;23.232;2023-07-31T04:46:06;25.47;;;17.63;;
61344;SDS011;47216;42.656;23.232;2023-07-31T04:48:32;24.10;;;18.40;;
61344;SDS011;47216;42.656;23.232;2023-07-31T04:51:00;23.50;;;17.37;;
61344;SDS011;47216;42.656;23.232;2023-07-31T04:53:27;24.07;;;16.13;;
61344;SDS011;47216;42.656;23.232;2023-07-31T04:55:54;20.30;;;16.17;;
61344;SDS011;47216;42.656;23.232;2023-07-31T04:58:21;19.97;;;15.53;;
61344;SDS011;47216;42.656;23.232;2023-07-31T05:00:47;19.30;;;15.07;;
61344;SDS011;47216;42.656;23.232;2023-07-31T05:03:14;18.43;;;15.27;;
61344;SDS011;47216;42.656;23.232;2023-07-31T05:05:41;16.47;;;13.70;;
61344;SDS011;47216;42.656;23.232;2023-07-31T05:08:09;16.08;;;13.48;;
61344;SDS011;47216;42.656;23.232;2023-07-31T05:10:36;14.83;;;12.30;;
61344;SDS011;47216;42.656;23.232;2023-07-31T05:13:02;15.93;;;13.07;;
61344;SDS011;47216;42.656;23.232;2023-07-31T05:15:29;19.63;;;14.97;;
61344;SDS011;47216;42.656;23.232;2023-07-31T05:17:56;18.57;;;13.47;;
61344;SDS011;47216;42.656;23.232;2023-07-31T05:20:23;16.70;;;13.47;;
61344;SDS011;47216;42.656;23.232;2023-07-31T05:22:50;15.90;;;12.67;;
61344;SDS011;47216;42.656;23.232;2023-07-31T05:25:18;13.67;;;11.47;;
61344;SDS011;47216;42.656;23.232;2023-07-31T05:27:45;14.93;;;12.53;;
61344;SDS011;47216;42.656;23.232;2023-07-31T05:30:12;12.68;;;10.68;;
61344;SDS011;47216;42.656;23.232;2023-07-31T05:32:39;13.10;;;10.83;;
61344;SDS011;47216;42.656;23.232;2023-07-31T05:35:06;16.47;;;11.47;;
61344;SDS011;47216;42.656;23.232;2023-07-31T05:37:34;12.95;;;11.00;;
61344;SDS011;47216;42.656;23.232;2023-07-31T05:40:00;11.73;;;9.87;;
61344;SDS011;47216;42.656;23.232;2023-07-31T05:42:29;11.13;;;9.57;;
61344;SDS011;47216;42.656;23.232;2023-07-31T05:44:55;9.68;;;8.68;;
61344;SDS011;47216;42.656;23.232;2023-07-31T05:47:22;11.10;;;9.27;;
61344;SDS011;47216;42.656;23.232;2023-07-31T05:49:49;12.38;;;8.73;;
61344;SDS011;47216;42.656;23.232;2023-07-31T05:52:17;9.05;;;8.10;;
61344;SDS011;47216;42.656;23.232;2023-07-31T05:54:44;10.60;;;8.60;;
61344;SDS011;47216;42.656;23.232;2023-07-31T05:57:11;9.63;;;8.48;;
61344;SDS011;47216;42.656;23.232;2023-07-31T05:59:39;12.18;;;9.63;;
61344;SDS011;47216;42.656;23.232;2023-07-31T06:02:06;8.55;;;7.63;;
61344;SDS011;47216;42.656;23.232;2023-07-31T06:04:33;9.43;;;7.30;;
61344;SDS011;47216;42.656;23.232;2023-07-31T06:07:00;7.90;;;7.10;;
61344;SDS011;47216;42.656;23.232;2023-07-31T06:09:26;8.15;;;6.43;;
61344;SDS011;47216;42.656;23.232;2023-07-31T06:11:53;6.70;;;5.73;;
61344;SDS011;47216;42.656;23.232;2023-07-31T06:14:20;7.28;;;6.00;;
61344;SDS011;47216;42.656;23.232;2023-07-31T06:16:48;6.22;;;5.20;;
61344;SDS011;47216;42.656;23.232;2023-07-31T06:19:15;4.78;;;4.15;;
61344;SDS011;47216;42.656;23.232;2023-07-31T06:21:42;5.68;;;4.18;;
61344;SDS011;47216;42.656;23.232;2023-07-31T06:24:09;5.00;;;4.30;;
61344;SDS011;47216;42.656;23.232;2023-07-31T06:26:37;4.07;;;3.50;;
61344;SDS011;47216;42.656;23.232;2023-07-31T06:29:04;5.72;;;4.20;;
61344;SDS011;47216;42.656;23.232;2023-07-31T06:31:30;4.93;;;4.38;;
61344;SDS011;47216;42.656;23.232;2023-07-31T06:33:58;5.03;;;4.53;;
61344;SDS011;47216;42.656;23.232;2023-07-31T06:36:25;4.93;;;4.28;;
61344;SDS011;47216;42.656;23.232;2023-07-31T06:38:52;4.43;;;3.95;;
61344;SDS011;47216;42.656;23.232;2023-07-31T06:41:18;4.68;;;4.28;;
61344;SDS011;47216;42.656;23.232;2023-07-31T06:43:45;5.30;;;4.00;;
61344;SDS011;47216;42.656;23.232;2023-07-31T06:46:12;4.38;;;3.97;;
61344;SDS011;47216;42.656;23.232;2023-07-31T06:48:39;4.43;;;3.92;;
61344;SDS011;47216;42.656;23.232;2023-07-31T06:51:07;3.80;;;3.50;;
61344;SDS011;47216;42.656;23.232;2023-07-31T06:53:33;4.10;;;3.15;;
61344;SDS011;47216;42.656;23.232;2023-07-31T06:56:00;4.20;;;3.50;;
61344;SDS011;47216;42.656;23.232;2023-07-31T06:58:27;3.80;;;3.22;;
61344;SDS011;47216;42.656;23.232;2023-07-31T07:00:54;3.72;;;2.95;;
61344;SDS011;47216;42.656;23.232;2023-07-31T07:03:20;3.10;;;2.70;;
61344;SDS011;47216;42.656;23.232;2023-07-31T07:05:47;2.58;;;2.38;;
61344;SDS011;47216;42.656;23.232;2023-07-31T07:08:15;4.05;;;2.45;;
61344;SDS011;47216;42.656;23.232;2023-07-31T07:10:42;4.03;;;2.75;;
61344;SDS011;47216;42.656;23.232;2023-07-31T07:13:09;2.70;;;2.38;;
61344;SDS011;47216;42.656;23.232;2023-07-31T07:15:37;3.38;;;2.45;;
61344;SDS011;47216;42.656;23.232;2023-07-31T07:18:04;2.28;;;2.08;;
61344;SDS011;47216;42.656;23.232;2023-07-31T07:20:31;2.50;;;2.30;;
61344;SDS011;47216;42.656;23.232;2023-07-31T07:22:58;3.08;;;2.80;;
61344;SDS011;47216;42.656;23.232;2023-07-31T07:25:26;2.70;;;2.50;;
61344;SDS011;47216;42.656;23.232;2023-07-31T07:27:52;4.28;;;2.20;;
61344;SDS011;47216;42.656;23.232;2023-07-31T07:30:19;2.33;;;2.05;;
61344;SDS011;47216;42.656;23.232;2023-07-31T07:32:46;3.20;;;2.10;;
61344;SDS011;47216;42.656;23.232;2023-07-31T07:35:13;4.28;;;2.25;;
61344;SDS011;47216;42.656;23.232;2023-07-31T07:37:40;2.45;;;2.25;;
61344;SDS011;47216;42.656;23.232;2023-07-31T07:40:07;2.92;;;2.38;;
61344;SDS011;47216;42.656;23.232;2023-07-31T07:42:36;3.00;;;2.30;;
61344;SDS011;47216;42.656;23.232;2023-07-31T07:45:03;2.28;;;2.08;;
61344;SDS011;47216;42.656;23.232;2023-07-31T07:47:31;2.25;;;2.00;;
61344;SDS011;47216;42.656;23.232;2023-07-31T07:49:57;2.22;;;1.98;;
61344;SDS011;47216;42.656;23.232;2023-07-31T07:52:24;3.25;;;2.17;;
61344;SDS011;47216;42.656;23.232;2023-07-31T07:54:51;2.83;;;2.20;;
61344;SDS011;47216;42.656;23.232;2023-07-31T07:57:18;2.40;;;2.20;;
61344;SDS011;47216;42.656;23.232;2023-07-31T07:59:46;2.05;;;1.85;;
61344;SDS011;47216;42.656;23.232;2023-07-31T08:02:12;4.47;;;2.38;;
61344;SDS011;47216;42.656;23.232;2023-07-31T08:04:39;2.50;;;2.20;;
61344;SDS011;47216;42.656;23.232;2023-07-31T08:07:06;2.47;;;2.00;;
61344;SDS011;47216;42.656;23.232;2023-07-31T08:09:33;2.95;;;2.40;;
61344;SDS011;47216;42.656;23.232;2023-07-31T08:11:59;2.72;;;2.33;;
61344;SDS011;47216;42.656;23.232;2023-07-31T08:14:28;2.95;;;1.70;;
61344;SDS011;47216;42.656;23.232;2023-07-31T08:16:56;3.55;;;2.30;;
61344;SDS011;47216;42.656;23.232;2023-07-31T08:19:23;2.50;;;2.30;;
61344;SDS011;47216;42.656;23.232;2023-07-31T08:21:50;2.38;;;2.17;;
61344;SDS011;47216;42.656;23.232;2023-07-31T08:24:17;2.38;;;2.17;;
61344;SDS011;47216;42.656;23.232;2023-07-31T08:26:43;3.45;;;2.55;;
61344;SDS011;47216;42.656;23.232;2023-07-31T08:29:10;4.43;;;2.17;;
61344;SDS011;47216;42.656;23.232;2023-07-31T08:31:37;2.45;;;2.22;;
61344;SDS011;47216;42.656;23.232;2023-07-31T08:34:05;2.50;;;2.30;;
61344;SDS011;47216;42.656;23.232;2023-07-31T08:36:32;3.03;;;2.28;;
61344;SDS011;47216;42.656;23.232;2023-07-31T08:38:58;2.75;;;2.15;;
61344;SDS011;47216;42.656;23.232;2023-07-31T08:41:25;2.70;;;2.05;;
61344;SDS011;47216;42.656;23.232;2023-07-31T08:43:53;2.38;;;2.17;;
61344;SDS011;47216;42.656;23.232;2023-07-31T08:46:21;3.30;;;1.98;;
61344;SDS011;47216;42.656;23.232;2023-07-31T08:48:48;2.28;;;2.08;;
61344;SDS011;47216;42.656;23.232;2023-07-31T08:51:19;2.28;;;2.00;;
61344;SDS011;47216;42.656;23.232;2023-07-31T08:53:46;2.45;;;2.10;;
61344;SDS011;47216;42.656;23.232;2023-07-31T08:56:13;2.35;;;2.00;;
61344;SDS011;47216;42.656;23.232;2023-07-31T08:58:42;2.28;;;1.83;;
61344;SDS011;47216;42.656;23.232;2023-07-31T09:01:09;3.60;;;2.03;;
61344;SDS011;47216;42.656;23.232;2023-07-31T09:03:37;4.03;;;2.20;;
61344;SDS011;47216;42.656;23.232;2023-07-31T09:06:06;3.05;;;2.30;;
61344;SDS011;47216;42.656;23.232;2023-07-31T09:08:34;2.63;;;2.00;;
61344;SDS011;47216;42.656;23.232;2023-07-31T09:11:05;3.15;;;2.20;;
61344;SDS011;47216;42.656;23.232;2023-07-31T09:13:32;2.42;;;1.98;;
61344;SDS011;47216;42.656;23.232;2023-07-31T09:16:00;2.55;;;2.08;;
61344;SDS011;47216;42.656;23.232;2023-07-31T09:18:27;2.53;;;2.15;;
61344;SDS011;47216;42.656;23.232;2023-07-31T09:21:00;6.60;;;2.15;;
61344;SDS011;47216;42.656;23.232;2023-07-31T09:23:40;2.40;;;2.10;;
61344;SDS011;47216;42.656;23.232;2023-07-31T09:26:08;2.85;;;2.55;;
61344;SDS011;47216;42.656;23.232;2023-07-31T09:28:35;2.80;;;2.28;;
61344;SDS011;47216;42.656;23.232;2023-07-31T09:31:02;2.47;;;1.98;;
61344;SDS011;47216;42.656;23.232;2023-07-31T09:33:28;4.38;;;2.53;;
61344;SDS011;47216;42.656;23.232;2023-07-31T09:35:56;2.67;;;2.40;;
61344;SDS011;47216;42.656;23.232;2023-07-31T09:38:25;2.45;;;2.13;;
61344;SDS011;47216;42.656;23.232;2023-07-31T09:40:53;2.72;;;2.10;;
61344;SDS011;47216;42.656;23.232;2023-07-31T09:43:20;2.92;;;2.33;;
61344;SDS011;47216;42.656;23.232;2023-07-31T09:45:48;2.30;;;2.10;;
61344;SDS011;47216;42.656;23.232;2023-07-31T09:48:19;4.00;;;2.13;;
61344;SDS011;47216;42.656;23.232;2023-07-31T09:50:47;2.90;;;2.13;;
61344;SDS011;47216;42.656;23.232;2023-07-31T09:53:15;2.50;;;2.30;;
61344;SDS011;47216;42.656;23.232;2023-07-31T09:55:42;2.20;;;1.92;;
61344;SDS011;47216;42.656;23.232;2023-07-31T09:58:11;2.90;;;2.15;;
61344;SDS011;47216;42.656;23.232;2023-07-31T10:00:39;2.70;;;1.98;;
61344;SDS011;47216;42.656;23.232;2023-07-31T10:03:07;2.22;;;2.03;;
61344;SDS011;47216;42.656;23.232;2023-07-31T10:05:35;2.03;;;1.83;;
61344;SDS011;47216;42.656;23.232;2023-07-31T10:08:06;1.80;;;1.70;;
61344;SDS011;47216;42.656;23.232;2023-07-31T10:10:35;3.75;;;2.25;;
61344;SDS011;47216;42.656;23.232;2023-07-31T10:13:02;2.20;;;2.00;;
61344;SDS011;47216;42.656;23.232;2023-07-31T10:15:32;2.30;;;1.90;;
61344;SDS011;47216;42.656;23.232;2023-07-31T10:18:00;3.17;;;1.80;;
61344;SDS011;47216;42.656;23.232;2023-07-31T10:20:27;3.83;;;1.65;;
61344;SDS011;47216;42.656;23.232;2023-07-31T10:22:55;3.55;;;1.70;;
61344;SDS011;47216;42.656;23.232;2023-07-31T10:25:24;2.40;;;2.20;;
61344;SDS011;47216;42.656;23.232;2023-07-31T10:27:53;2.20;;;2.00;;
61344;SDS011;47216;42.656;23.232;2023-07-31T10:30:20;2.45;;;1.80;;
61344;SDS011;47216;42.656;23.232;2023-07-31T10:32:52;2.30;;;2.10;;
61344;SDS011;47216;42.656;23.232;2023-07-31T10:35:19;4.68;;;2.03;;
61344;SDS011;47216;42.656;23.232;2023-07-31T10:37:47;1.90;;;1.80;;
61344;SDS011;47216;42.656;23.232;2023-07-31T10:40:15;2.92;;;1.80;;
61344;SDS011;47216;42.656;23.232;2023-07-31T10:42:45;2.30;;;1.83;;
61344;SDS011;47216;42.656;23.232;2023-07-31T10:45:14;1.80;;;1.67;;
61344;SDS011;47216;42.656;23.232;2023-07-31T10:47:57;2.28;;;2.08;;
61344;SDS011;47216;42.656;23.232;2023-07-31T10:50:26;1.95;;;1.70;;
61344;SDS011;47216;42.656;23.232;2023-07-31T10:52:56;1.60;;;1.42;;
61344;SDS011;47216;42.656;23.232;2023-07-31T10:55:25;2.78;;;1.65;;
61344;SDS011;47216;42.656;23.232;2023-07-31T10:57:53;1.90;;;1.70;;
61344;SDS011;47216;42.656;23.232;2023-07-31T11:00:21;1.42;;;1.33;;
61344;SDS011;47216;42.656;23.232;2023-07-31T11:03:00;1.40;;;1.30;;
61344;SDS011;47216;42.656;23.232;2023-07-31T11:05:41;1.80;;;1.58;;
61344;SDS011;47216;42.656;23.232;2023-07-31T11:08:10;4.43;;;1.77;;
61344;SDS011;47216;42.656;23.232;2023-07-31T11:10:38;1.55;;;1.45;;
61344;SDS011;47216;42.656;23.232;2023-07-31T11:13:04;2.38;;;1.70;;
61344;SDS011;47216;42.656;23.232;2023-07-31T11:15:31;2.97;;;1.67;;
61344;SDS011;47216;42.656;23.232;2023-07-31T11:17:59;2.08;;;1.50;;
61344;SDS011;47216;42.656;23.232;2023-07-31T11:20:30;1.92;;;1.50;;
61344;SDS011;47216;42.656;23.232;2023-07-31T11:22:58;2.00;;;1.80;;
61344;SDS011;47216;42.656;23.232;2023-07-31T11:25:26;1.60;;;1.50;;
61344;SDS011;47216;42.656;23.232;2023-07-31T11:27:55;1.98;;;1.75;;
61344;SDS011;47216;42.656;23.232;2023-07-31T11:30:22;1.90;;;1.70;;
61344;SDS011;47216;42.656;23.232;2023-07-31T11:32:49;1.95;;;1.73;;
61344;SDS011;47216;42.656;23.232;2023-07-31T11:35:17;2.10;;;1.88;;
61344;SDS011;47216;42.656;23.232;2023-07-31T11:37:44;4.50;;;2.03;;
61344;SDS011;47216;42.656;23.232;2023-07-31T11:40:11;2.35;;;1.92;;
61344;SDS011;47216;42.656;23.232;2023-07-31T11:42:38;2.58;;;2.10;;
61344;SDS011;47216;42.656;23.232;2023-07-31T11:45:05;2.13;;;1.92;;
61344;SDS011;47216;42.656;23.232;2023-07-31T11:47:33;2.28;;;1.92;;
61344;SDS011;47216;42.656;23.232;2023-07-31T11:50:01;1.95;;;1.85;;
61344;SDS011;47216;42.656;23.232;2023-07-31T11:52:31;2.60;;;2.30;;
61344;SDS011;47216;42.656;23.232;2023-07-31T11:55:03;2.95;;;2.38;;
61344;SDS011;47216;42.656;23.232;2023-07-31T11:57:31;4.75;;;1.98;;
61344;SDS011;47216;42.656;23.232;2023-07-31T11:59:58;2.67;;;2.33;;
61344;SDS011;47216;42.656;23.232;2023-07-31T12:02:25;2.60;;;2.40;;
61344;SDS011;47216;42.656;23.232;2023-07-31T12:04:52;3.65;;;2.80;;
61344;SDS011;47216;42.656;23.232;2023-07-31T12:07:19;2.78;;;2.58;;
61344;SDS011;47216;42.656;23.232;2023-07-31T12:09:53;3.63;;;3.13;;
61344;SDS011;47216;42.656;23.232;2023-07-31T12:12:22;3.15;;;2.85;;
61344;SDS011;47216;42.656;23.232;2023-07-31T12:14:50;3.72;;;3.03;;
61344;SDS011;47216;42.656;23.232;2023-07-31T12:17:17;2.47;;;2.28;;
61344;SDS011;47216;42.656;23.232;2023-07-31T12:19:45;4.60;;;2.90;;
61344;SDS011;47216;42.656;23.232;2023-07-31T12:22:15;2.90;;;2.60;;
61344;SDS011;47216;42.656;23.232;2023-07-31T12:24:43;3.88;;;3.15;;
61344;SDS011;47216;42.656;23.232;2023-07-31T12:27:12;5.43;;;4.93;;
61344;SDS011;47216;42.656;23.232;2023-07-31T12:29:41;4.85;;;4.25;;
61344;SDS011;47216;42.656;23.232;2023-07-31T12:32:22;6.38;;;4.78;;
61344;SDS011;47216;42.656;23.232;2023-07-31T12:34:50;7.05;;;5.10;;
61344;SDS011;47216;42.656;23.232;2023-07-31T12:37:17;4.97;;;4.47;;
61344;SDS011;47216;42.656;23.232;2023-07-31T12:39:43;5.00;;;4.55;;
61344;SDS011;47216;42.656;23.232;2023-07-31T12:42:14;4.97;;;4.40;;
61344;SDS011;47216;42.656;23.232;2023-07-31T12:44:43;4.78;;;4.28;;
61344;SDS011;47216;42.656;23.232;2023-07-31T12:47:10;6.35;;;4.28;;
61344;SDS011;47216;42.656;23.232;2023-07-31T12:49:37;5.00;;;4.38;;
61344;SDS011;47216;42.656;23.232;2023-07-31T12:52:04;5.47;;;4.70;;
61344;SDS011;47216;42.656;23.232;2023-07-31T12:54:31;5.20;;;4.70;;
61344;SDS011;47216;42.656;23.232;2023-07-31T12:56:58;5.38;;;4.88;;
61344;SDS011;47216;42.656;23.232;2023-07-31T12:59:26;6.00;;;5.40;;
61344;SDS011;47216;42.656;23.232;2023-07-31T13:01:52;5.25;;;4.82;;
61344;SDS011;47216;42.656;23.232;2023-07-31T13:04:19;6.05;;;5.45;;
61344;SDS011;47216;42.656;23.232;2023-07-31T13:06:46;5.72;;;5.18;;
61344;SDS011;47216;42.656;23.232;2023-07-31T13:09:13;5.93;;;5.32;;
61344;SDS011;47216;42.656;23.232;2023-07-31T13:11:42;6.32;;;5.35;;
61344;SDS011;47216;42.656;23.232;2023-07-31T13:14:09;5.18;;;4.68;;
61344;SDS011;47216;42.656;23.232;2023-07-31T13:16:37;6.72;;;4.88;;
61344;SDS011;47216;42.656;23.232;2023-07-31T13:19:04;5.20;;;4.75;;
61344;SDS011;47216;42.656;23.232;2023-07-31T13:21:31;7.25;;;4.78;;
61344;SDS011;47216;42.656;23.232;2023-07-31T13:24:00;5.15;;;4.65;;
61344;SDS011;47216;42.656;23.232;2023-07-31T13:26:27;4.93;;;4.43;;
61344;SDS011;47216;42.656;23.232;2023-07-31T13:28:54;4.28;;;3.88;;
61344;SDS011;47216;42.656;23.232;2023-07-31T13:31:21;4.35;;;3.95;;
61344;SDS011;47216;42.656;23.232;2023-07-31T13:33:50;3.45;;;3.15;;
61344;SDS011;47216;42.656;23.232;2023-07-31T13:36:16;3.55;;;3.25;;
61344;SDS011;47216;42.656;23.232;2023-07-31T13:38:43;3.70;;;3.40;;
61344;SDS011;47216;42.656;23.232;2023-07-31T13:41:10;3.80;;;3.40;;
61344;SDS011;47216;42.656;23.232;2023-07-31T13:43:37;3.42;;;3.10;;
61344;SDS011;47216;42.656;23.232;2023-07-31T13:46:04;3.60;;;3.28;;
61344;SDS011;47216;42.656;23.232;2023-07-31T13:48:31;4.28;;;3.88;;
61344;SDS011;47216;42.656;23.232;2023-07-31T13:51:01;4.35;;;3.17;;
61344;SDS011;47216;42.656;23.232;2023-07-31T13:53:27;5.47;;;3.40;;
61344;SDS011;47216;42.656;23.232;2023-07-31T13:55:54;8.35;;;3.45;;
61344;SDS011;47216;42.656;23.232;2023-07-31T13:58:21;3.30;;;3.00;;
61344;SDS011;47216;42.656;23.232;2023-07-31T14:00:48;3.13;;;2.83;;
61344;SDS011;47216;42.656;23.232;2023-07-31T14:03:15;3.30;;;3.00;;
61344;SDS011;47216;42.656;23.232;2023-07-31T14:05:41;3.83;;;3.00;;
61344;SDS011;47216;42.656;23.232;2023-07-31T14:08:10;5.28;;;3.30;;
61344;SDS011;47216;42.656;23.232;2023-07-31T14:10:36;4.15;;;3.50;;
61344;SDS011;47216;42.656;23.232;2023-07-31T14:13:03;3.63;;;3.20;;
61344;SDS011;47216;42.656;23.232;2023-07-31T14:15:30;3.22;;;2.92;;
61344;SDS011;47216;42.656;23.232;2023-07-31T14:17:57;3.55;;;3.08;;
61344;SDS011;47216;42.656;23.232;2023-07-31T14:20:24;5.80;;;2.78;;
61344;SDS011;47216;42.656;23.232;2023-07-31T14:22:51;4.03;;;3.13;;
61344;SDS011;47216;42.656;23.232;2023-07-31T14:25:19;3.35;;;3.05;;
61344;SDS011;47216;42.656;23.232;2023-07-31T14:27:46;3.50;;;3.20;;